sensor_id;sensor_type;location;lat;lon;timestamp;pressure;altitude;pressure_sealevel;temperature;humidity
26112;BME280;13829;48.990;8.346;2023-02-04T00:00:58;101888.53;;;9.16;100.00
26112;BME280;13829;48.990;8.346;2023-02-04T00:03:25;101891.00;;;9.11;100.00
26112;BME280;13829;48.990;8.346;2023-02-04T00:05:52;101880.38;;;9.08;100.00
26112;BME280;13829;48.990;8.346;2023-02-04T00:08:19;101881.44;;;9.13;100.00
26112;BME280;13829;48.990;8.346;2023-02-04T00:10:47;101895.03;;;9.01;100.00
26112;BME280;13829;48.990;8.346;2023-02-04T00:13:14;101896.25;;;9.11;100.00
26112;BME280;13829;48.990;8.346;2023-02-04T00:15:41;101889.00;;;9.04;100.00
26112;BME280;13829;48.990;8.346;2023-02-04T00:18:08;101896.78;;;9.01;100.00
26112;BME280;13829;48.990;8.346;2023-02-04T00:20:36;101886.63;;;9.11;100.00
26112;BME280;13829;48.990;8.346;2023-02-04T00:23:03;101886.84;;;9.18;100.00
26112;BME280;13829;48.990;8.346;2023-02-04T00:25:29;101886.06;;;9.20;100.00
26112;BME280;13829;48.990;8.346;2023-02-04T00:27:58;101882.34;;;9.13;100.00
26112;BME280;13829;48.990;8.346;2023-02-04T00:30:25;101892.16;;;9.19;100.00
26112;BME280;13829;48.990;8.346;2023-02-04T00:32:52;101906.31;;;9.24;100.00
26112;BME280;13829;48.990;8.346;2023-02-04T00:35:19;101902.78;;;9.22;100.00
26112;BME280;13829;48.990;8.346;2023-02-04T00:37:46;101892.31;;;9.24;100.00
26112;BME280;13829;48.990;8.346;2023-02-04T00:40:13;101894.91;;;9.22;100.00
26112;BME280;13829;48.990;8.346;2023-02-04T00:42:40;101892.97;;;9.18;100.00
26112;BME280;13829;48.990;8.346;2023-02-04T00:45:10;101892.78;;;9.12;100.00
26112;BME280;13829;48.990;8.346;2023-02-04T00:47:38;101893.56;;;9.09;100.00
26112;BME280;13829;48.990;8.346;2023-02-04T00:50:06;101902.28;;;9.08;100.00
26112;BME280;13829;48.990;8.346;2023-02-04T00:52:33;101900.78;;;9.15;100.00
26112;BME280;13829;48.990;8.346;2023-02-04T00:54:59;101909.38;;;9.11;100.00
26112;BME280;13829;48.990;8.346;2023-02-04T00:57:27;101900.03;;;9.19;100.00
26112;BME280;13829;48.990;8.346;2023-02-04T00:59:54;101904.97;;;9.10;100.00
26112;BME280;13829;48.990;8.346;2023-02-04T01:02:22;101895.59;;;9.18;100.00
26112;BME280;13829;48.990;8.346;2023-02-04T01:04:49;101891.56;;;9.02;100.00
26112;BME280;13829;48.990;8.346;2023-02-04T01:07:17;101897.94;;;9.09;100.00
26112;BME280;13829;48.990;8.346;2023-02-04T01:09:44;101894.72;;;8.92;100.00
26112;BME280;13829;48.990;8.346;2023-02-04T01:12:10;101892.47;;;9.03;100.00
26112;BME280;13829;48.990;8.346;2023-02-04T01:14:37;101899.75;;;9.11;100.00
26112;BME280;13829;48.990;8.346;2023-02-04T01:17:05;101892.78;;;9.12;100.00
26112;BME280;13829;48.990;8.346;2023-02-04T01:19:33;101897.75;;;9.04;100.00
26112;BME280;13829;48.990;8.346;2023-02-04T01:22:00;101905.69;;;9.06;100.00
26112;BME280;13829;48.990;8.346;2023-02-04T01:24:27;101907.94;;;8.95;100.00
26112;BME280;13829;48.990;8.346;2023-02-04T01:26:54;101916.38;;;8.86;100.00
26112;BME280;13829;48.990;8.346;2023-02-04T01:29:21;101907.75;;;8.90;100.00
26112;BME280;13829;48.990;8.346;2023-02-04T01:31:47;101910.00;;;9.04;100.00
26112;BME280;13829;48.990;8.346;2023-02-04T01:34:14;101897.47;;;8.96;100.00
26112;BME280;13829;48.990;8.346;2023-02-04T01:36:43;101908.03;;;8.98;100.00
26112;BME280;13829;48.990;8.346;2023-02-04T01:39:09;101908.31;;;9.06;100.00
26112;BME280;13829;48.990;8.346;2023-02-04T01:41:36;101913.69;;;8.85;100.00
26112;BME280;13829;48.990;8.346;2023-02-04T01:44:03;101910.66;;;8.74;100.00
26112;BME280;13829;48.990;8.346;2023-02-04T01:46:31;101911.94;;;8.85;100.00
26112;BME280;13829;48.990;8.346;2023-02-04T01:48:59;101909.69;;;8.94;100.00
26112;BME280;13829;48.990;8.346;2023-02-04T01:51:27;101906.41;;;9.02;100.00
26112;BME280;13829;48.990;8.346;2023-02-04T01:53:58;101914.69;;;8.88;100.00
26112;BME280;13829;48.990;8.346;2023-02-04T01:56:28;101906.56;;;8.80;100.00
26112;BME280;13829;48.990;8.346;2023-02-04T01:58:57;101908.41;;;8.83;100.00
26112;BME280;13829;48.990;8.346;2023-02-04T02:01:36;101915.31;;;8.81;100.00
26112;BME280;13829;48.990;8.346;2023-02-04T02:04:07;101905.41;;;8.74;100.00
26112;BME280;13829;48.990;8.346;2023-02-04T02:06:35;101912.59;;;8.78;100.00
26112;BME280;13829;48.990;8.346;2023-02-04T02:09:05;101909.81;;;8.75;100.00
26112;BME280;13829;48.990;8.346;2023-02-04T02:11:32;101919.81;;;8.85;100.00
26112;BME280;13829;48.990;8.346;2023-02-04T02:14:00;101921.38;;;8.80;100.00
26112;BME280;13829;48.990;8.346;2023-02-04T02:16:27;101916.13;;;8.80;100.00
26112;BME280;13829;48.990;8.346;2023-02-04T02:18:54;101912.69;;;8.81;100.00
26112;BME280;13829;48.990;8.346;2023-02-04T02:21:31;101918.75;;;8.80;100.00
26112;BME280;13829;48.990;8.346;2023-02-04T02:24:24;101926.06;;;8.64;100.00
26112;BME280;13829;48.990;8.346;2023-02-04T02:26:52;101943.13;;;8.53;100.00
26112;BME280;13829;48.990;8.346;2023-02-04T02:29:20;101969.25;;;8.50;100.00
26112;BME280;13829;48.990;8.346;2023-02-04T02:31:48;101971.13;;;8.54;100.00
26112;BME280;13829;48.990;8.346;2023-02-04T02:34:15;101971.53;;;8.42;100.00
26112;BME280;13829;48.990;8.346;2023-02-04T02:36:43;101970.91;;;8.48;100.00
26112;BME280;13829;48.990;8.346;2023-02-04T02:39:11;101966.28;;;8.42;100.00
26112;BME280;13829;48.990;8.346;2023-02-04T02:41:39;101962.16;;;8.47;100.00
26112;BME280;13829;48.990;8.346;2023-02-04T02:44:07;101974.22;;;8.44;100.00
26112;BME280;13829;48.990;8.346;2023-02-04T02:46:34;101976.59;;;8.38;100.00
26112;BME280;13829;48.990;8.346;2023-02-04T02:49:01;101971.66;;;8.45;100.00
26112;BME280;13829;48.990;8.346;2023-02-04T02:51:28;101975.00;;;8.41;100.00
26112;BME280;13829;48.990;8.346;2023-02-04T02:53:56;101975.75;;;8.39;100.00
26112;BME280;13829;48.990;8.346;2023-02-04T02:56:25;101970.53;;;8.39;100.00
26112;BME280;13829;48.990;8.346;2023-02-04T02:58:52;101970.31;;;8.55;100.00
26112;BME280;13829;48.990;8.346;2023-02-04T03:01:19;101974.50;;;8.50;100.00
26112;BME280;13829;48.990;8.346;2023-02-04T03:03:49;101980.28;;;8.43;100.00
26112;BME280;13829;48.990;8.346;2023-02-04T03:06:21;101985.75;;;8.26;100.00
26112;BME280;13829;48.990;8.346;2023-02-04T03:08:53;101986.34;;;8.42;100.00
26112;BME280;13829;48.990;8.346;2023-02-04T03:11:22;101985.59;;;8.44;100.00
26112;BME280;13829;48.990;8.346;2023-02-04T03:13:52;101996.25;;;8.26;100.00
26112;BME280;13829;48.990;8.346;2023-02-04T03:16:19;101992.03;;;8.30;100.00
26112;BME280;13829;48.990;8.346;2023-02-04T03:18:47;102000.91;;;8.33;100.00
26112;BME280;13829;48.990;8.346;2023-02-04T03:21:14;101997.38;;;8.33;100.00
26112;BME280;13829;48.990;8.346;2023-02-04T03:23:41;101988.16;;;8.43;100.00
26112;BME280;13829;48.990;8.346;2023-02-04T03:26:08;102003.75;;;8.40;100.00
26112;BME280;13829;48.990;8.346;2023-02-04T03:28:38;101988.25;;;8.67;100.00
26112;BME280;13829;48.990;8.346;2023-02-04T03:31:07;101993.19;;;8.59;100.00
26112;BME280;13829;48.990;8.346;2023-02-04T03:33:34;102004.50;;;8.58;100.00
26112;BME280;13829;48.990;8.346;2023-02-04T03:36:01;101996.34;;;8.73;100.00
26112;BME280;13829;48.990;8.346;2023-02-04T03:38:28;102000.72;;;8.50;100.00
26112;BME280;13829;48.990;8.346;2023-02-04T03:40:55;102010.34;;;8.51;100.00
26112;BME280;13829;48.990;8.346;2023-02-04T03:43:22;102014.16;;;8.59;100.00
26112;BME280;13829;48.990;8.346;2023-02-04T03:45:49;102019.47;;;8.40;100.00
26112;BME280;13829;48.990;8.346;2023-02-04T03:48:17;102014.22;;;8.40;100.00
26112;BME280;13829;48.990;8.346;2023-02-04T03:50:44;102015.31;;;8.22;100.00
26112;BME280;13829;48.990;8.346;2023-02-04T03:53:11;102029.69;;;8.11;100.00
26112;BME280;13829;48.990;8.346;2023-02-04T03:55:38;102035.97;;;8.37;100.00
26112;BME280;13829;48.990;8.346;2023-02-04T03:58:05;102040.09;;;8.30;100.00
26112;BME280;13829;48.990;8.346;2023-02-04T04:00:32;102040.66;;;8.23;100.00
26112;BME280;13829;48.990;8.346;2023-02-04T04:02:59;102044.97;;;8.21;100.00
26112;BME280;13829;48.990;8.346;2023-02-04T04:05:27;102056.84;;;8.13;100.00
26112;BME280;13829;48.990;8.346;2023-02-04T04:07:55;102055.31;;;8.18;100.00
26112;BME280;13829;48.990;8.346;2023-02-04T04:10:22;102054.66;;;8.03;100.00
26112;BME280;13829;48.990;8.346;2023-02-04T04:12:49;102054.03;;;7.87;100.00
26112;BME280;13829;48.990;8.346;2023-02-04T04:15:16;102054.56;;;7.99;100.00
26112;BME280;13829;48.990;8.346;2023-02-04T04:17:43;102053.38;;;7.72;100.00
26112;BME280;13829;48.990;8.346;2023-02-04T04:20:11;102050.97;;;7.97;100.00
26112;BME280;13829;48.990;8.346;2023-02-04T04:22:40;102054.59;;;7.80;100.00
26112;BME280;13829;48.990;8.346;2023-02-04T04:25:08;102061.59;;;8.00;100.00
26112;BME280;13829;48.990;8.346;2023-02-04T04:27:35;102074.25;;;8.11;100.00
26112;BME280;13829;48.990;8.346;2023-02-04T04:30:02;102060.69;;;8.00;100.00
26112;BME280;13829;48.990;8.346;2023-02-04T04:32:29;102062.09;;;8.13;100.00
26112;BME280;13829;48.990;8.346;2023-02-04T04:34:56;102057.00;;;8.16;100.00
26112;BME280;13829;48.990;8.346;2023-02-04T04:37:22;102055.69;;;8.06;100.00
26112;BME280;13829;48.990;8.346;2023-02-04T04:39:51;102055.13;;;8.13;100.00
26112;BME280;13829;48.990;8.346;2023-02-04T04:42:18;102058.91;;;8.20;100.00
26112;BME280;13829;48.990;8.346;2023-02-04T04:44:45;102060.06;;;8.06;100.00
26112;BME280;13829;48.990;8.346;2023-02-04T04:47:11;102068.75;;;8.05;100.00
26112;BME280;13829;48.990;8.346;2023-02-04T04:49:38;102074.00;;;8.05;100.00
26112;BME280;13829;48.990;8.346;2023-02-04T04:52:05;102073.28;;;8.09;100.00
26112;BME280;13829;48.990;8.346;2023-02-04T04:54:32;102070.16;;;8.18;100.00
26112;BME280;13829;48.990;8.346;2023-02-04T04:57:01;102085.22;;;8.23;100.00
26112;BME280;13829;48.990;8.346;2023-02-04T04:59:28;102084.63;;;8.09;100.00
26112;BME280;13829;48.990;8.346;2023-02-04T05:01:54;102075.59;;;8.22;100.00
26112;BME280;13829;48.990;8.346;2023-02-04T05:04:21;102075.34;;;8.16;100.00
26112;BME280;13829;48.990;8.346;2023-02-04T05:06:48;102061.53;;;8.20;100.00
26112;BME280;13829;48.990;8.346;2023-02-04T05:09:15;102057.94;;;8.18;100.00
26112;BME280;13829;48.990;8.346;2023-02-04T05:11:42;102058.13;;;8.23;100.00
26112;BME280;13829;48.990;8.346;2023-02-04T05:14:10;102064.22;;;8.00;100.00
26112;BME280;13829;48.990;8.346;2023-02-04T05:16:37;102061.59;;;8.00;100.00
26112;BME280;13829;48.990;8.346;2023-02-04T05:19:04;102065.16;;;8.03;100.00
26112;BME280;13829;48.990;8.346;2023-02-04T05:21:31;102061.91;;;8.08;100.00
26112;BME280;13829;48.990;8.346;2023-02-04T05:23:58;102057.25;;;8.01;100.00
26112;BME280;13829;48.990;8.346;2023-02-04T05:26:25;102062.78;;;8.09;100.00
26112;BME280;13829;48.990;8.346;2023-02-04T05:28:52;102067.72;;;8.01;100.00
26112;BME280;13829;48.990;8.346;2023-02-04T05:31:20;102060.75;;;8.02;100.00
26112;BME280;13829;48.990;8.346;2023-02-04T05:33:47;102064.34;;;8.04;100.00
26112;BME280;13829;48.990;8.346;2023-02-04T05:36:14;102066.06;;;8.03;100.00
26112;BME280;13829;48.990;8.346;2023-02-04T05:38:42;102081.59;;;7.98;100.00
26112;BME280;13829;48.990;8.346;2023-02-04T05:41:09;102080.44;;;7.92;100.00
26112;BME280;13829;48.990;8.346;2023-02-04T05:43:36;102080.59;;;7.96;100.00
26112;BME280;13829;48.990;8.346;2023-02-04T05:46:03;102076.34;;;7.98;100.00
26112;BME280;13829;48.990;8.346;2023-02-04T05:48:31;102076.91;;;7.91;100.00
26112;BME280;13829;48.990;8.346;2023-02-04T05:50:58;102077.06;;;7.94;100.00
26112;BME280;13829;48.990;8.346;2023-02-04T05:53:25;102083.28;;;7.98;100.00
26112;BME280;13829;48.990;8.346;2023-02-04T05:55:52;102077.72;;;7.90;100.00
26112;BME280;13829;48.990;8.346;2023-02-04T05:58:19;102083.22;;;7.96;100.00
26112;BME280;13829;48.990;8.346;2023-02-04T06:00:46;102085.59;;;7.90;100.00
26112;BME280;13829;48.990;8.346;2023-02-04T06:03:13;102091.91;;;7.95;100.00
26112;BME280;13829;48.990;8.346;2023-02-04T06:05:41;102097.84;;;7.91;100.00
26112;BME280;13829;48.990;8.346;2023-02-04T06:08:08;102098.78;;;7.92;100.00
26112;BME280;13829;48.990;8.346;2023-02-04T06:10:36;102108.22;;;7.88;100.00
26112;BME280;13829;48.990;8.346;2023-02-04T06:13:03;102121.09;;;7.83;100.00
26112;BME280;13829;48.990;8.346;2023-02-04T06:15:29;102116.75;;;7.84;100.00
26112;BME280;13829;48.990;8.346;2023-02-04T06:17:56;102117.50;;;7.81;100.00
26112;BME280;13829;48.990;8.346;2023-02-04T06:20:24;102125.75;;;7.89;100.00
26112;BME280;13829;48.990;8.346;2023-02-04T06:22:52;102122.53;;;7.96;100.00
26112;BME280;13829;48.990;8.346;2023-02-04T06:25:19;102122.41;;;7.93;100.00
26112;BME280;13829;48.990;8.346;2023-02-04T06:27:46;102125.31;;;7.80;100.00
26112;BME280;13829;48.990;8.346;2023-02-04T06:30:14;102140.25;;;7.82;100.00
26112;BME280;13829;48.990;8.346;2023-02-04T06:32:41;102141.56;;;7.92;100.00
26112;BME280;13829;48.990;8.346;2023-02-04T06:35:09;102149.97;;;7.85;100.00
26112;BME280;13829;48.990;8.346;2023-02-04T06:37:37;102149.88;;;7.82;100.00
26112;BME280;13829;48.990;8.346;2023-02-04T06:40:07;102149.88;;;7.82;100.00
26112;BME280;13829;48.990;8.346;2023-02-04T06:42:35;102147.47;;;7.87;100.00
26112;BME280;13829;48.990;8.346;2023-02-04T06:45:02;102150.41;;;7.94;100.00
26112;BME280;13829;48.990;8.346;2023-02-04T06:47:30;102151.94;;;7.89;100.00
26112;BME280;13829;48.990;8.346;2023-02-04T06:49:56;102157.19;;;7.89;100.00
26112;BME280;13829;48.990;8.346;2023-02-04T06:52:23;102155.66;;;7.94;100.00
26112;BME280;13829;48.990;8.346;2023-02-04T06:54:50;102154.81;;;7.95;100.00
26112;BME280;13829;48.990;8.346;2023-02-04T06:57:19;102166.41;;;8.00;100.00
26112;BME280;13829;48.990;8.346;2023-02-04T06:59:45;102165.56;;;8.02;100.00
26112;BME280;13829;48.990;8.346;2023-02-04T07:02:13;102171.50;;;7.97;100.00
26112;BME280;13829;48.990;8.346;2023-02-04T07:04:40;102175.16;;;8.01;100.00
26112;BME280;13829;48.990;8.346;2023-02-04T07:07:08;102179.34;;;7.97;100.00
26112;BME280;13829;48.990;8.346;2023-02-04T07:09:35;102175.75;;;7.95;100.00
26112;BME280;13829;48.990;8.346;2023-02-04T07:12:05;102172.16;;;8.13;100.00
26112;BME280;13829;48.990;8.346;2023-02-04T07:14:34;102169.84;;;7.99;100.00
26112;BME280;13829;48.990;8.346;2023-02-04T07:17:01;102183.38;;;7.89;100.00
26112;BME280;13829;48.990;8.346;2023-02-04T07:19:28;102182.53;;;7.90;100.00
26112;BME280;13829;48.990;8.346;2023-02-04T07:21:55;102195.22;;;7.81;100.00
26112;BME280;13829;48.990;8.346;2023-02-04T07:24:22;102198.31;;;7.72;100.00
26112;BME280;13829;48.990;8.346;2023-02-04T07:26:50;102206.03;;;7.69;100.00
26112;BME280;13829;48.990;8.346;2023-02-04T07:29:17;102208.72;;;7.71;100.00
26112;BME280;13829;48.990;8.346;2023-02-04T07:31:46;102213.22;;;7.73;100.00
26112;BME280;13829;48.990;8.346;2023-02-04T07:34:16;102211.41;;;7.72;100.00
26112;BME280;13829;48.990;8.346;2023-02-04T07:36:43;102205.56;;;7.78;100.00
26112;BME280;13829;48.990;8.346;2023-02-04T07:39:10;102207.34;;;7.79;100.00
26112;BME280;13829;48.990;8.346;2023-02-04T07:41:37;102203.78;;;7.77;100.00
26112;BME280;13829;48.990;8.346;2023-02-04T07:44:04;102215.41;;;7.83;100.00
26112;BME280;13829;48.990;8.346;2023-02-04T07:46:31;102214.94;;;7.92;100.00
26112;BME280;13829;48.990;8.346;2023-02-04T07:49:00;102220.19;;;7.92;100.00
26112;BME280;13829;48.990;8.346;2023-02-04T07:51:26;102232.59;;;7.96;100.00
26112;BME280;13829;48.990;8.346;2023-02-04T07:53:54;102222.53;;;8.06;100.00
26112;BME280;13829;48.990;8.346;2023-02-04T07:56:21;102226.81;;;8.04;100.00
26112;BME280;13829;48.990;8.346;2023-02-04T07:58:48;102234.25;;;7.94;100.00
26112;BME280;13829;48.990;8.346;2023-02-04T08:01:15;102241.41;;;7.98;100.00
26112;BME280;13829;48.990;8.346;2023-02-04T08:03:42;102247.81;;;8.05;100.00
26112;BME280;13829;48.990;8.346;2023-02-04T08:06:11;102247.50;;;8.17;100.00
26112;BME280;13829;48.990;8.346;2023-02-04T08:08:38;102266.94;;;8.22;100.00
26112;BME280;13829;48.990;8.346;2023-02-04T08:11:05;102261.88;;;8.27;100.00
26112;BME280;13829;48.990;8.346;2023-02-04T08:13:32;102259.69;;;8.36;100.00
26112;BME280;13829;48.990;8.346;2023-02-04T08:15:59;102267.56;;;8.36;100.00
26112;BME280;13829;48.990;8.346;2023-02-04T08:18:26;102269.19;;;8.54;100.00
26112;BME280;13829;48.990;8.346;2023-02-04T08:20:52;102274.38;;;8.52;100.00
26112;BME280;13829;48.990;8.346;2023-02-04T08:23:21;102272.47;;;8.48;100.00
26112;BME280;13829;48.990;8.346;2023-02-04T08:25:48;102275.09;;;8.48;100.00
26112;BME280;13829;48.990;8.346;2023-02-04T08:28:15;102282.41;;;8.55;100.00
26112;BME280;13829;48.990;8.346;2023-02-04T08:30:42;102284.84;;;8.72;100.00
26112;BME280;13829;48.990;8.346;2023-02-04T08:33:09;102280.09;;;8.84;100.00
26112;BME280;13829;48.990;8.346;2023-02-04T08:35:36;102281.66;;;9.00;100.00
26112;BME280;13829;48.990;8.346;2023-02-04T08:38:03;102279.59;;;9.14;100.00
26112;BME280;13829;48.990;8.346;2023-02-04T08:40:31;102280.47;;;9.36;100.00
26112;BME280;13829;48.990;8.346;2023-02-04T08:42:58;102282.44;;;9.19;100.00
26112;BME280;13829;48.990;8.346;2023-02-04T08:45:25;102279.53;;;9.34;100.00
26112;BME280;13829;48.990;8.346;2023-02-04T08:47:52;102289.38;;;9.39;100.00
26112;BME280;13829;48.990;8.346;2023-02-04T08:50:19;102293.38;;;9.52;100.00
26112;BME280;13829;48.990;8.346;2023-02-04T08:52:46;102298.91;;;9.37;100.00
26112;BME280;13829;48.990;8.346;2023-02-04T08:55:13;102304.78;;;9.30;100.00
26112;BME280;13829;48.990;8.346;2023-02-04T08:57:41;102304.81;;;9.53;100.00
26112;BME280;13829;48.990;8.346;2023-02-04T09:00:11;102310.13;;;9.77;100.00
26112;BME280;13829;48.990;8.346;2023-02-04T09:02:38;102302.66;;;9.88;100.00
26112;BME280;13829;48.990;8.346;2023-02-04T09:05:06;102310.22;;;10.03;100.00
26112;BME280;13829;48.990;8.346;2023-02-04T09:07:33;102308.19;;;9.95;100.00
26112;BME280;13829;48.990;8.346;2023-02-04T09:10:00;102308.50;;;9.58;100.00
26112;BME280;13829;48.990;8.346;2023-02-04T09:12:27;102325.13;;;9.79;100.00
26112;BME280;13829;48.990;8.346;2023-02-04T09:14:55;102323.22;;;9.75;100.00
26112;BME280;13829;48.990;8.346;2023-02-04T09:17:22;102323.03;;;9.93;100.00
26112;BME280;13829;48.990;8.346;2023-02-04T09:19:49;102318.91;;;10.24;100.00
26112;BME280;13829;48.990;8.346;2023-02-04T09:22:16;102322.13;;;10.40;100.00
26112;BME280;13829;48.990;8.346;2023-02-04T09:24:43;102318.69;;;10.18;100.00
26112;BME280;13829;48.990;8.346;2023-02-04T09:27:10;102320.94;;;10.54;99.02
26112;BME280;13829;48.990;8.346;2023-02-04T09:29:37;102318.94;;;10.49;90.20
26112;BME280;13829;48.990;8.346;2023-02-04T09:32:05;102318.91;;;10.24;94.23
26112;BME280;13829;48.990;8.346;2023-02-04T09:34:32;102325.41;;;10.34;95.66
26112;BME280;13829;48.990;8.346;2023-02-04T09:36:59;102328.28;;;10.39;90.10
26112;BME280;13829;48.990;8.346;2023-02-04T09:39:27;102335.09;;;10.11;91.37
26112;BME280;13829;48.990;8.346;2023-02-04T09:41:54;102344.16;;;10.19;89.35
26112;BME280;13829;48.990;8.346;2023-02-04T09:44:25;102338.47;;;10.31;87.34
26112;BME280;13829;48.990;8.346;2023-02-04T09:46:56;102340.75;;;10.22;86.39
26112;BME280;13829;48.990;8.346;2023-02-04T09:49:26;102344.06;;;9.93;83.75
26112;BME280;13829;48.990;8.346;2023-02-04T09:51:54;102343.91;;;10.13;84.78
26112;BME280;13829;48.990;8.346;2023-02-04T09:54:22;102346.72;;;10.18;85.22
26112;BME280;13829;48.990;8.346;2023-02-04T09:56:51;102347.19;;;10.30;85.81
26112;BME280;13829;48.990;8.346;2023-02-04T09:59:20;102353.03;;;9.99;80.97
26112;BME280;13829;48.990;8.346;2023-02-04T10:02:01;102355.34;;;9.68;84.10
26112;BME280;13829;48.990;8.346;2023-02-04T10:04:30;102353.78;;;9.96;84.61
26112;BME280;13829;48.990;8.346;2023-02-04T10:06:57;102359.34;;;9.81;84.12
26112;BME280;13829;48.990;8.346;2023-02-04T10:09:24;102356.06;;;9.43;83.27
26112;BME280;13829;48.990;8.346;2023-02-04T10:11:51;102362.41;;;9.27;84.47
26112;BME280;13829;48.990;8.346;2023-02-04T10:14:22;102361.97;;;9.16;83.01
26112;BME280;13829;48.990;8.346;2023-02-04T10:16:54;102356.50;;;9.11;84.37
26112;BME280;13829;48.990;8.346;2023-02-04T10:19:22;102348.13;;;9.20;83.87
26112;BME280;13829;48.990;8.346;2023-02-04T10:21:51;102360.16;;;9.15;85.52
26112;BME280;13829;48.990;8.346;2023-02-04T10:24:21;102368.09;;;9.17;84.52
26112;BME280;13829;48.990;8.346;2023-02-04T10:26:51;102368.88;;;9.14;83.80
26112;BME280;13829;48.990;8.346;2023-02-04T10:29:21;102369.84;;;9.16;84.47
26112;BME280;13829;48.990;8.346;2023-02-04T10:31:51;102374.69;;;9.28;84.98
26112;BME280;13829;48.990;8.346;2023-02-04T10:34:20;102369.72;;;9.55;84.47
26112;BME280;13829;48.990;8.346;2023-02-04T10:36:51;102374.34;;;9.62;81.20
26112;BME280;13829;48.990;8.346;2023-02-04T10:39:21;102376.09;;;9.41;81.53
26112;BME280;13829;48.990;8.346;2023-02-04T10:41:50;102366.13;;;9.53;80.67
26112;BME280;13829;48.990;8.346;2023-02-04T10:44:25;102375.69;;;9.74;80.28
26112;BME280;13829;48.990;8.346;2023-02-04T10:46:58;102372.59;;;9.61;78.82
26112;BME280;13829;48.990;8.346;2023-02-04T10:49:25;102368.72;;;9.74;78.63
26112;BME280;13829;48.990;8.346;2023-02-04T10:51:53;102373.03;;;9.51;74.92
26112;BME280;13829;48.990;8.346;2023-02-04T10:54:24;102373.88;;;9.50;74.02
26112;BME280;13829;48.990;8.346;2023-02-04T10:56:59;102367.84;;;9.53;73.11
26112;BME280;13829;48.990;8.346;2023-02-04T10:59:26;102358.13;;;9.50;74.48
26112;BME280;13829;48.990;8.346;2023-02-04T11:01:55;102359.81;;;9.71;74.88
26112;BME280;13829;48.990;8.346;2023-02-04T11:04:23;102363.31;;;9.71;73.69
26112;BME280;13829;48.990;8.346;2023-02-04T11:06:53;102363.97;;;9.87;73.54
26112;BME280;13829;48.990;8.346;2023-02-04T11:09:20;102366.81;;;9.93;74.80
26112;BME280;13829;48.990;8.346;2023-02-04T11:11:49;102360.66;;;9.70;72.42
26112;BME280;13829;48.990;8.346;2023-02-04T11:14:27;102360.22;;;9.82;73.69
26112;BME280;13829;48.990;8.346;2023-02-04T11:16:56;102370.72;;;9.82;74.05
26112;BME280;13829;48.990;8.346;2023-02-04T11:19:35;102367.81;;;9.74;73.40
26112;BME280;13829;48.990;8.346;2023-02-04T11:22:22;102372.66;;;9.42;75.12
26112;BME280;13829;48.990;8.346;2023-02-04T11:24:50;102375.94;;;9.36;75.24
26112;BME280;13829;48.990;8.346;2023-02-04T11:27:22;102365.34;;;9.35;76.95
26112;BME280;13829;48.990;8.346;2023-02-04T11:29:52;102371.25;;;9.50;76.03
26112;BME280;13829;48.990;8.346;2023-02-04T11:32:33;102365.69;;;9.42;76.30
26112;BME280;13829;48.990;8.346;2023-02-04T11:35:24;102365.91;;;9.49;76.02
26112;BME280;13829;48.990;8.346;2023-02-04T11:37:52;102369.16;;;9.41;78.73
26112;BME280;13829;48.990;8.346;2023-02-04T11:40:29;102364.38;;;9.54;76.67
26112;BME280;13829;48.990;8.346;2023-02-04T11:43:07;102368.53;;;9.49;76.50
26112;BME280;13829;48.990;8.346;2023-02-04T11:45:36;102364.78;;;9.42;77.99
26112;BME280;13829;48.990;8.346;2023-02-04T11:48:12;102370.00;;;9.21;78.46
26112;BME280;13829;48.990;8.346;2023-02-04T11:50:40;102364.16;;;9.26;77.39
26112;BME280;13829;48.990;8.346;2023-02-04T11:53:10;102362.28;;;9.45;77.84
26112;BME280;13829;48.990;8.346;2023-02-04T11:55:45;102362.03;;;9.18;74.71
26112;BME280;13829;48.990;8.346;2023-02-04T11:58:16;102358.72;;;9.66;74.35
26112;BME280;13829;48.990;8.346;2023-02-04T12:00:43;102358.84;;;9.69;74.28
26112;BME280;13829;48.990;8.346;2023-02-04T12:03:23;102365.53;;;9.60;74.42
26112;BME280;13829;48.990;8.346;2023-02-04T12:05:51;102360.78;;;9.73;73.92
26112;BME280;13829;48.990;8.346;2023-02-04T12:08:30;102353.91;;;9.99;75.31
26112;BME280;13829;48.990;8.346;2023-02-04T12:11:03;102358.47;;;10.03;75.56
26112;BME280;13829;48.990;8.346;2023-02-04T12:13:32;102357.44;;;10.00;74.15
26112;BME280;13829;48.990;8.346;2023-02-04T12:16:02;102356.47;;;9.98;72.00
26112;BME280;13829;48.990;8.346;2023-02-04T12:18:31;102356.00;;;9.85;73.22
26112;BME280;13829;48.990;8.346;2023-02-04T12:20:59;102354.97;;;9.82;73.27
26112;BME280;13829;48.990;8.346;2023-02-04T12:23:29;102363.84;;;9.62;70.61
26112;BME280;13829;48.990;8.346;2023-02-04T12:25:57;102357.09;;;9.46;69.42
26112;BME280;13829;48.990;8.346;2023-02-04T12:28:25;102358.44;;;9.16;70.31
26112;BME280;13829;48.990;8.346;2023-02-04T12:30:53;102360.00;;;9.12;70.94
26112;BME280;13829;48.990;8.346;2023-02-04T12:33:20;102360.69;;;9.27;71.45
26112;BME280;13829;48.990;8.346;2023-02-04T12:35:48;102352.97;;;9.53;73.29
26112;BME280;13829;48.990;8.346;2023-02-04T12:38:15;102356.19;;;10.12;69.50
26112;BME280;13829;48.990;8.346;2023-02-04T12:40:44;102345.72;;;10.37;67.43
26112;BME280;13829;48.990;8.346;2023-02-04T12:43:11;102354.69;;;10.42;68.25
26112;BME280;13829;48.990;8.346;2023-02-04T12:45:38;102349.09;;;10.57;68.84
26112;BME280;13829;48.990;8.346;2023-02-04T12:48:10;102364.91;;;10.58;67.34
26112;BME280;13829;48.990;8.346;2023-02-04T12:50:37;102352.28;;;10.48;69.00
26112;BME280;13829;48.990;8.346;2023-02-04T12:53:04;102354.56;;;10.39;70.32
26112;BME280;13829;48.990;8.346;2023-02-04T12:55:31;102353.94;;;10.23;71.51
26112;BME280;13829;48.990;8.346;2023-02-04T12:58:00;102352.34;;;10.04;74.87